Terminal Aerodrome Forecast
Issued by NWS

Current Version | Previous Version | Graphics & Text | Print | Product List | Glossary On
Versions: 1 2 3 4 5 6 7 8 9 10 11 12 13 14 15 16 17 18 19 20 21 22 23 24 25 26 27
899
FTUS41 KILN 282347
TAFLUK
TAF
KLUK 282347Z 2900/2924 26010G18KT 3SM -TSRA BKN025CB OVC035
     FM290030 29005KT P6SM VCSH SCT025 BKN035
     FM290300 00000KT P6SM SCT025 BKN035
     FM290800 00000KT 3SM BR OVC008
      TEMPO 2908/2912 1SM BR
     FM291300 01004KT 4SM BR OVC015
     FM291700 03006KT P6SM VCSH BKN035
     FM292200 03005KT P6SM -SHRA SCT025 BKN035=

USA.gov is the U.S. government's official web portal to all federal, state and local government web resources and services.